sensor_id;sensor_type;location;lat;lon;timestamp;P1;durP1;ratioP1;P2;durP2;ratioP2
45011;SDS011;63444;48.148;11.542;2024-02-23T00:01:56;0.50;;;0.50;;
45011;SDS011;63444;48.148;11.542;2024-02-23T00:04:22;0.40;;;0.40;;
45011;SDS011;63444;48.148;11.542;2024-02-23T00:06:47;0.50;;;0.50;;
45011;SDS011;63444;48.148;11.542;2024-02-23T00:09:13;0.50;;;0.50;;
45011;SDS011;63444;48.148;11.542;2024-02-23T00:11:39;0.50;;;0.50;;
45011;SDS011;63444;48.148;11.542;2024-02-23T00:14:09;0.50;;;0.50;;
45011;SDS011;63444;48.148;11.542;2024-02-23T00:16:41;0.50;;;0.50;;
45011;SDS011;63444;48.148;11.542;2024-02-23T00:19:10;0.40;;;0.40;;
45011;SDS011;63444;48.148;11.542;2024-02-23T00:21:38;1.13;;;0.50;;
45011;SDS011;63444;48.148;11.542;2024-02-23T00:24:07;0.40;;;0.40;;
45011;SDS011;63444;48.148;11.542;2024-02-23T00:26:33;0.50;;;0.50;;
45011;SDS011;63444;48.148;11.542;2024-02-23T00:28:58;0.60;;;0.60;;
45011;SDS011;63444;48.148;11.542;2024-02-23T00:31:24;0.53;;;0.53;;
45011;SDS011;63444;48.148;11.542;2024-02-23T00:33:50;0.47;;;0.47;;
45011;SDS011;63444;48.148;11.542;2024-02-23T00:36:16;0.43;;;0.43;;
45011;SDS011;63444;48.148;11.542;2024-02-23T00:38:42;0.50;;;0.50;;
45011;SDS011;63444;48.148;11.542;2024-02-23T00:41:07;0.50;;;0.50;;
45011;SDS011;63444;48.148;11.542;2024-02-23T00:43:39;1.03;;;0.57;;
45011;SDS011;63444;48.148;11.542;2024-02-23T00:46:06;0.47;;;0.47;;
45011;SDS011;63444;48.148;11.542;2024-02-23T00:48:32;0.50;;;0.50;;
45011;SDS011;63444;48.148;11.542;2024-02-23T00:50:57;0.50;;;0.50;;
45011;SDS011;63444;48.148;11.542;2024-02-23T00:53:23;0.67;;;0.60;;
45011;SDS011;63444;48.148;11.542;2024-02-23T00:55:49;0.50;;;0.50;;
45011;SDS011;63444;48.148;11.542;2024-02-23T00:58:14;0.57;;;0.57;;
45011;SDS011;63444;48.148;11.542;2024-02-23T01:00:41;0.40;;;0.40;;
45011;SDS011;63444;48.148;11.542;2024-02-23T01:03:06;0.77;;;0.47;;
45011;SDS011;63444;48.148;11.542;2024-02-23T01:05:32;0.47;;;0.47;;
45011;SDS011;63444;48.148;11.542;2024-02-23T01:07:58;0.57;;;0.50;;
45011;SDS011;63444;48.148;11.542;2024-02-23T01:10:24;0.50;;;0.50;;
45011;SDS011;63444;48.148;11.542;2024-02-23T01:12:49;1.23;;;0.50;;
45011;SDS011;63444;48.148;11.542;2024-02-23T01:15:15;0.50;;;0.50;;
45011;SDS011;63444;48.148;11.542;2024-02-23T01:17:40;0.50;;;0.50;;
45011;SDS011;63444;48.148;11.542;2024-02-23T01:20:06;0.50;;;0.50;;
45011;SDS011;63444;48.148;11.542;2024-02-23T01:22:32;0.67;;;0.60;;
45011;SDS011;63444;48.148;11.542;2024-02-23T01:24:58;0.50;;;0.50;;
45011;SDS011;63444;48.148;11.542;2024-02-23T01:27:23;0.50;;;0.50;;
45011;SDS011;63444;48.148;11.542;2024-02-23T01:29:49;0.83;;;0.60;;
45011;SDS011;63444;48.148;11.542;2024-02-23T01:32:14;0.60;;;0.60;;
45011;SDS011;63444;48.148;11.542;2024-02-23T01:34:40;0.50;;;0.50;;
45011;SDS011;63444;48.148;11.542;2024-02-23T01:37:05;0.60;;;0.60;;
45011;SDS011;63444;48.148;11.542;2024-02-23T01:39:31;0.80;;;0.60;;
45011;SDS011;63444;48.148;11.542;2024-02-23T01:41:57;0.50;;;0.50;;
45011;SDS011;63444;48.148;11.542;2024-02-23T01:44:23;0.40;;;0.40;;
45011;SDS011;63444;48.148;11.542;2024-02-23T01:46:49;0.50;;;0.50;;
45011;SDS011;63444;48.148;11.542;2024-02-23T01:49:15;0.57;;;0.50;;
45011;SDS011;63444;48.148;11.542;2024-02-23T01:51:41;0.70;;;0.60;;
45011;SDS011;63444;48.148;11.542;2024-02-23T01:54:07;0.50;;;0.50;;
45011;SDS011;63444;48.148;11.542;2024-02-23T01:56:34;0.40;;;0.40;;
45011;SDS011;63444;48.148;11.542;2024-02-23T01:59:02;0.50;;;0.50;;
45011;SDS011;63444;48.148;11.542;2024-02-23T02:01:29;0.50;;;0.50;;
45011;SDS011;63444;48.148;11.542;2024-02-23T02:03:55;0.40;;;0.40;;
45011;SDS011;63444;48.148;11.542;2024-02-23T02:06:22;0.60;;;0.60;;
45011;SDS011;63444;48.148;11.542;2024-02-23T02:08:48;0.50;;;0.50;;
45011;SDS011;63444;48.148;11.542;2024-02-23T02:11:14;0.47;;;0.47;;
45011;SDS011;63444;48.148;11.542;2024-02-23T02:13:40;0.40;;;0.40;;
45011;SDS011;63444;48.148;11.542;2024-02-23T02:16:06;0.50;;;0.50;;
45011;SDS011;63444;48.148;11.542;2024-02-23T02:18:31;0.43;;;0.43;;
45011;SDS011;63444;48.148;11.542;2024-02-23T02:20:57;0.40;;;0.40;;
45011;SDS011;63444;48.148;11.542;2024-02-23T02:23:24;0.57;;;0.57;;
45011;SDS011;63444;48.148;11.542;2024-02-23T02:25:57;0.50;;;0.50;;
45011;SDS011;63444;48.148;11.542;2024-02-23T02:28:24;0.40;;;0.40;;
45011;SDS011;63444;48.148;11.542;2024-02-23T02:30:50;0.50;;;0.50;;
45011;SDS011;63444;48.148;11.542;2024-02-23T02:33:17;0.50;;;0.50;;
45011;SDS011;63444;48.148;11.542;2024-02-23T02:35:43;0.50;;;0.50;;
45011;SDS011;63444;48.148;11.542;2024-02-23T02:38:10;0.50;;;0.50;;
45011;SDS011;63444;48.148;11.542;2024-02-23T02:40:36;0.50;;;0.50;;
45011;SDS011;63444;48.148;11.542;2024-02-23T02:43:02;0.40;;;0.40;;
45011;SDS011;63444;48.148;11.542;2024-02-23T02:45:28;0.40;;;0.40;;
45011;SDS011;63444;48.148;11.542;2024-02-23T02:47:53;0.60;;;0.60;;
45011;SDS011;63444;48.148;11.542;2024-02-23T02:50:19;0.50;;;0.50;;
45011;SDS011;63444;48.148;11.542;2024-02-23T02:52:46;0.40;;;0.40;;
45011;SDS011;63444;48.148;11.542;2024-02-23T02:55:12;0.50;;;0.50;;
45011;SDS011;63444;48.148;11.542;2024-02-23T02:57:38;0.50;;;0.50;;
45011;SDS011;63444;48.148;11.542;2024-02-23T03:00:04;0.50;;;0.50;;
45011;SDS011;63444;48.148;11.542;2024-02-23T03:02:33;0.50;;;0.50;;
45011;SDS011;63444;48.148;11.542;2024-02-23T03:04:58;0.53;;;0.50;;
45011;SDS011;63444;48.148;11.542;2024-02-23T03:07:24;0.50;;;0.50;;
45011;SDS011;63444;48.148;11.542;2024-02-23T03:09:50;0.70;;;0.60;;
45011;SDS011;63444;48.148;11.542;2024-02-23T03:12:16;0.60;;;0.60;;
45011;SDS011;63444;48.148;11.542;2024-02-23T03:14:42;0.50;;;0.50;;
45011;SDS011;63444;48.148;11.542;2024-02-23T03:17:08;0.60;;;0.60;;
45011;SDS011;63444;48.148;11.542;2024-02-23T03:19:34;0.80;;;0.60;;
45011;SDS011;63444;48.148;11.542;2024-02-23T03:22:00;0.60;;;0.60;;
45011;SDS011;63444;48.148;11.542;2024-02-23T03:24:26;0.50;;;0.50;;
45011;SDS011;63444;48.148;11.542;2024-02-23T03:26:51;0.60;;;0.60;;
45011;SDS011;63444;48.148;11.542;2024-02-23T03:29:17;0.73;;;0.63;;
45011;SDS011;63444;48.148;11.542;2024-02-23T03:31:42;0.60;;;0.60;;
45011;SDS011;63444;48.148;11.542;2024-02-23T03:34:08;0.70;;;0.70;;
45011;SDS011;63444;48.148;11.542;2024-02-23T03:36:34;1.50;;;0.80;;
45011;SDS011;63444;48.148;11.542;2024-02-23T03:39:01;0.50;;;0.50;;
45011;SDS011;63444;48.148;11.542;2024-02-23T03:41:27;0.60;;;0.60;;
45011;SDS011;63444;48.148;11.542;2024-02-23T03:43:52;0.50;;;0.50;;
45011;SDS011;63444;48.148;11.542;2024-02-23T03:46:18;0.80;;;0.80;;
45011;SDS011;63444;48.148;11.542;2024-02-23T03:48:44;0.60;;;0.60;;
45011;SDS011;63444;48.148;11.542;2024-02-23T03:51:10;0.50;;;0.50;;
45011;SDS011;63444;48.148;11.542;2024-02-23T03:53:36;1.30;;;0.63;;
45011;SDS011;63444;48.148;11.542;2024-02-23T03:56:02;0.87;;;0.60;;
45011;SDS011;63444;48.148;11.542;2024-02-23T03:58:28;0.60;;;0.60;;
45011;SDS011;63444;48.148;11.542;2024-02-23T04:00:53;0.60;;;0.60;;
45011;SDS011;63444;48.148;11.542;2024-02-23T04:03:19;0.70;;;0.70;;
45011;SDS011;63444;48.148;11.542;2024-02-23T04:05:45;0.63;;;0.63;;
45011;SDS011;63444;48.148;11.542;2024-02-23T04:08:10;0.90;;;0.70;;
45011;SDS011;63444;48.148;11.542;2024-02-23T04:10:36;2.77;;;0.90;;
45011;SDS011;63444;48.148;11.542;2024-02-23T04:13:02;0.70;;;0.70;;
45011;SDS011;63444;48.148;11.542;2024-02-23T04:15:28;0.60;;;0.60;;
45011;SDS011;63444;48.148;11.542;2024-02-23T04:17:53;0.70;;;0.70;;
45011;SDS011;63444;48.148;11.542;2024-02-23T04:20:19;0.60;;;0.60;;
45011;SDS011;63444;48.148;11.542;2024-02-23T04:22:45;0.93;;;0.60;;
45011;SDS011;63444;48.148;11.542;2024-02-23T04:25:11;0.60;;;0.60;;
45011;SDS011;63444;48.148;11.542;2024-02-23T04:27:36;0.70;;;0.70;;
45011;SDS011;63444;48.148;11.542;2024-02-23T04:30:03;0.80;;;0.80;;
45011;SDS011;63444;48.148;11.542;2024-02-23T04:32:29;0.60;;;0.60;;
45011;SDS011;63444;48.148;11.542;2024-02-23T04:34:55;1.03;;;0.60;;
45011;SDS011;63444;48.148;11.542;2024-02-23T04:37:21;0.70;;;0.70;;
45011;SDS011;63444;48.148;11.542;2024-02-23T04:39:46;1.80;;;0.60;;
45011;SDS011;63444;48.148;11.542;2024-02-23T04:42:12;0.63;;;0.63;;
45011;SDS011;63444;48.148;11.542;2024-02-23T04:44:37;0.57;;;0.57;;
45011;SDS011;63444;48.148;11.542;2024-02-23T04:47:03;0.70;;;0.70;;
45011;SDS011;63444;48.148;11.542;2024-02-23T04:49:28;1.27;;;0.80;;
45011;SDS011;63444;48.148;11.542;2024-02-23T04:51:54;1.13;;;0.70;;
45011;SDS011;63444;48.148;11.542;2024-02-23T04:54:20;0.60;;;0.60;;
45011;SDS011;63444;48.148;11.542;2024-02-23T04:56:46;0.67;;;0.60;;
45011;SDS011;63444;48.148;11.542;2024-02-23T04:59:12;1.23;;;0.90;;
45011;SDS011;63444;48.148;11.542;2024-02-23T05:01:39;0.53;;;0.53;;
45011;SDS011;63444;48.148;11.542;2024-02-23T05:04:04;0.80;;;0.80;;
45011;SDS011;63444;48.148;11.542;2024-02-23T05:06:30;0.70;;;0.70;;
45011;SDS011;63444;48.148;11.542;2024-02-23T05:08:55;0.70;;;0.70;;
45011;SDS011;63444;48.148;11.542;2024-02-23T05:11:21;0.70;;;0.70;;
45011;SDS011;63444;48.148;11.542;2024-02-23T05:13:47;0.70;;;0.60;;
45011;SDS011;63444;48.148;11.542;2024-02-23T05:16:13;0.70;;;0.70;;
45011;SDS011;63444;48.148;11.542;2024-02-23T05:18:39;0.70;;;0.70;;
45011;SDS011;63444;48.148;11.542;2024-02-23T05:21:06;0.60;;;0.60;;
45011;SDS011;63444;48.148;11.542;2024-02-23T05:23:32;1.07;;;0.70;;
45011;SDS011;63444;48.148;11.542;2024-02-23T05:25:57;0.80;;;0.80;;
45011;SDS011;63444;48.148;11.542;2024-02-23T05:28:23;0.67;;;0.67;;
45011;SDS011;63444;48.148;11.542;2024-02-23T05:30:49;0.70;;;0.70;;
45011;SDS011;63444;48.148;11.542;2024-02-23T05:33:16;0.70;;;0.70;;
45011;SDS011;63444;48.148;11.542;2024-02-23T05:35:45;0.63;;;0.63;;
45011;SDS011;63444;48.148;11.542;2024-02-23T05:38:13;2.10;;;0.80;;
45011;SDS011;63444;48.148;11.542;2024-02-23T05:40:39;0.70;;;0.70;;
45011;SDS011;63444;48.148;11.542;2024-02-23T05:43:05;1.83;;;0.70;;
45011;SDS011;63444;48.148;11.542;2024-02-23T05:45:31;0.77;;;0.77;;
45011;SDS011;63444;48.148;11.542;2024-02-23T05:47:56;1.07;;;0.70;;
45011;SDS011;63444;48.148;11.542;2024-02-23T05:50:22;0.80;;;0.80;;
45011;SDS011;63444;48.148;11.542;2024-02-23T05:52:48;0.80;;;0.80;;
45011;SDS011;63444;48.148;11.542;2024-02-23T05:55:14;0.80;;;0.80;;
45011;SDS011;63444;48.148;11.542;2024-02-23T05:57:40;0.70;;;0.70;;
45011;SDS011;63444;48.148;11.542;2024-02-23T06:00:06;0.67;;;0.67;;
45011;SDS011;63444;48.148;11.542;2024-02-23T06:02:34;0.80;;;0.80;;
45011;SDS011;63444;48.148;11.542;2024-02-23T06:05:00;0.70;;;0.70;;
45011;SDS011;63444;48.148;11.542;2024-02-23T06:07:26;0.80;;;0.80;;
45011;SDS011;63444;48.148;11.542;2024-02-23T06:09:54;0.93;;;0.90;;
45011;SDS011;63444;48.148;11.542;2024-02-23T06:12:21;0.80;;;0.80;;
45011;SDS011;63444;48.148;11.542;2024-02-23T06:14:47;1.47;;;1.00;;
45011;SDS011;63444;48.148;11.542;2024-02-23T06:17:12;0.80;;;0.80;;
45011;SDS011;63444;48.148;11.542;2024-02-23T06:19:38;0.70;;;0.70;;
45011;SDS011;63444;48.148;11.542;2024-02-23T06:22:04;1.00;;;0.90;;
45011;SDS011;63444;48.148;11.542;2024-02-23T06:24:29;0.80;;;0.80;;
45011;SDS011;63444;48.148;11.542;2024-02-23T06:26:55;0.80;;;0.80;;
45011;SDS011;63444;48.148;11.542;2024-02-23T06:29:22;0.70;;;0.70;;
45011;SDS011;63444;48.148;11.542;2024-02-23T06:31:48;0.80;;;0.80;;
45011;SDS011;63444;48.148;11.542;2024-02-23T06:34:14;0.80;;;0.80;;
45011;SDS011;63444;48.148;11.542;2024-02-23T06:36:41;1.57;;;0.90;;
45011;SDS011;63444;48.148;11.542;2024-02-23T06:39:07;0.80;;;0.80;;
45011;SDS011;63444;48.148;11.542;2024-02-23T06:41:33;1.50;;;0.77;;
45011;SDS011;63444;48.148;11.542;2024-02-23T06:43:59;1.00;;;0.80;;
45011;SDS011;63444;48.148;11.542;2024-02-23T06:46:25;2.23;;;1.00;;
45011;SDS011;63444;48.148;11.542;2024-02-23T06:48:51;0.80;;;0.80;;
45011;SDS011;63444;48.148;11.542;2024-02-23T06:51:17;0.90;;;0.80;;
45011;SDS011;63444;48.148;11.542;2024-02-23T06:53:42;0.83;;;0.83;;
45011;SDS011;63444;48.148;11.542;2024-02-23T06:56:08;1.53;;;0.90;;
45011;SDS011;63444;48.148;11.542;2024-02-23T06:58:34;1.80;;;0.80;;
45011;SDS011;63444;48.148;11.542;2024-02-23T07:01:00;1.43;;;0.70;;
45011;SDS011;63444;48.148;11.542;2024-02-23T07:03:27;1.00;;;1.00;;
45011;SDS011;63444;48.148;11.542;2024-02-23T07:05:53;0.90;;;0.90;;
45011;SDS011;63444;48.148;11.542;2024-02-23T07:08:18;1.00;;;0.90;;
45011;SDS011;63444;48.148;11.542;2024-02-23T07:10:44;1.60;;;1.00;;
45011;SDS011;63444;48.148;11.542;2024-02-23T07:13:10;1.00;;;1.00;;
45011;SDS011;63444;48.148;11.542;2024-02-23T07:15:35;0.80;;;0.80;;
45011;SDS011;63444;48.148;11.542;2024-02-23T07:18:02;0.83;;;0.83;;
45011;SDS011;63444;48.148;11.542;2024-02-23T07:20:28;1.03;;;0.97;;
45011;SDS011;63444;48.148;11.542;2024-02-23T07:22:53;1.13;;;0.90;;
45011;SDS011;63444;48.148;11.542;2024-02-23T07:25:19;1.00;;;0.90;;
45011;SDS011;63444;48.148;11.542;2024-02-23T07:27:45;1.37;;;0.87;;
45011;SDS011;63444;48.148;11.542;2024-02-23T07:30:13;0.83;;;0.83;;
45011;SDS011;63444;48.148;11.542;2024-02-23T07:32:39;1.70;;;0.90;;
45011;SDS011;63444;48.148;11.542;2024-02-23T07:35:05;0.80;;;0.80;;
45011;SDS011;63444;48.148;11.542;2024-02-23T07:37:31;2.00;;;1.17;;
45011;SDS011;63444;48.148;11.542;2024-02-23T07:39:56;1.47;;;0.93;;
45011;SDS011;63444;48.148;11.542;2024-02-23T07:42:22;1.53;;;0.93;;
45011;SDS011;63444;48.148;11.542;2024-02-23T07:44:48;1.73;;;0.93;;
45011;SDS011;63444;48.148;11.542;2024-02-23T07:47:13;0.90;;;0.90;;
45011;SDS011;63444;48.148;11.542;2024-02-23T07:49:39;1.00;;;0.83;;
45011;SDS011;63444;48.148;11.542;2024-02-23T07:52:06;1.00;;;0.90;;
45011;SDS011;63444;48.148;11.542;2024-02-23T07:54:32;3.30;;;1.20;;
45011;SDS011;63444;48.148;11.542;2024-02-23T07:56:57;1.47;;;0.90;;
45011;SDS011;63444;48.148;11.542;2024-02-23T07:59:23;1.17;;;0.80;;
45011;SDS011;63444;48.148;11.542;2024-02-23T08:01:49;1.57;;;1.00;;
45011;SDS011;63444;48.148;11.542;2024-02-23T08:04:15;1.20;;;1.00;;
45011;SDS011;63444;48.148;11.542;2024-02-23T08:06:41;1.97;;;1.00;;
45011;SDS011;63444;48.148;11.542;2024-02-23T08:09:10;1.83;;;1.10;;
45011;SDS011;63444;48.148;11.542;2024-02-23T08:11:36;0.83;;;0.83;;
45011;SDS011;63444;48.148;11.542;2024-02-23T08:14:01;2.00;;;1.03;;
45011;SDS011;63444;48.148;11.542;2024-02-23T08:16:28;1.77;;;0.97;;
45011;SDS011;63444;48.148;11.542;2024-02-23T08:18:54;2.03;;;1.10;;
45011;SDS011;63444;48.148;11.542;2024-02-23T08:21:20;1.03;;;0.80;;
45011;SDS011;63444;48.148;11.542;2024-02-23T08:23:45;0.90;;;0.90;;
45011;SDS011;63444;48.148;11.542;2024-02-23T08:26:11;1.23;;;0.90;;
45011;SDS011;63444;48.148;11.542;2024-02-23T08:28:37;1.97;;;1.30;;
45011;SDS011;63444;48.148;11.542;2024-02-23T08:31:03;1.40;;;1.00;;
45011;SDS011;63444;48.148;11.542;2024-02-23T08:33:28;1.47;;;0.90;;
45011;SDS011;63444;48.148;11.542;2024-02-23T08:35:54;1.60;;;1.00;;
45011;SDS011;63444;48.148;11.542;2024-02-23T08:38:20;1.27;;;0.90;;
45011;SDS011;63444;48.148;11.542;2024-02-23T08:40:45;0.90;;;0.90;;
45011;SDS011;63444;48.148;11.542;2024-02-23T08:43:11;1.00;;;0.90;;
45011;SDS011;63444;48.148;11.542;2024-02-23T08:45:38;2.13;;;1.20;;
45011;SDS011;63444;48.148;11.542;2024-02-23T08:48:04;1.60;;;1.10;;
45011;SDS011;63444;48.148;11.542;2024-02-23T08:50:30;0.93;;;0.83;;
45011;SDS011;63444;48.148;11.542;2024-02-23T08:52:55;1.87;;;1.00;;
45011;SDS011;63444;48.148;11.542;2024-02-23T08:55:21;1.47;;;1.03;;
45011;SDS011;63444;48.148;11.542;2024-02-23T08:57:47;2.00;;;1.10;;
45011;SDS011;63444;48.148;11.542;2024-02-23T09:00:13;1.07;;;1.00;;
45011;SDS011;63444;48.148;11.542;2024-02-23T09:02:39;2.47;;;1.30;;
45011;SDS011;63444;48.148;11.542;2024-02-23T09:05:07;2.37;;;1.20;;
45011;SDS011;63444;48.148;11.542;2024-02-23T09:07:33;3.83;;;1.50;;
45011;SDS011;63444;48.148;11.542;2024-02-23T09:09:59;2.20;;;1.20;;
45011;SDS011;63444;48.148;11.542;2024-02-23T09:12:25;1.57;;;1.10;;
45011;SDS011;63444;48.148;11.542;2024-02-23T09:14:51;1.77;;;1.20;;
45011;SDS011;63444;48.148;11.542;2024-02-23T09:17:16;2.43;;;1.00;;
45011;SDS011;63444;48.148;11.542;2024-02-23T09:19:44;2.50;;;1.07;;
45011;SDS011;63444;48.148;11.542;2024-02-23T09:22:09;1.17;;;0.90;;
45011;SDS011;63444;48.148;11.542;2024-02-23T09:24:38;1.10;;;1.00;;
45011;SDS011;63444;48.148;11.542;2024-02-23T09:27:04;1.07;;;1.00;;
45011;SDS011;63444;48.148;11.542;2024-02-23T09:29:30;2.60;;;1.20;;
45011;SDS011;63444;48.148;11.542;2024-02-23T09:31:56;2.17;;;1.00;;
45011;SDS011;63444;48.148;11.542;2024-02-23T09:34:21;2.37;;;1.10;;
45011;SDS011;63444;48.148;11.542;2024-02-23T09:36:47;1.63;;;1.00;;
45011;SDS011;63444;48.148;11.542;2024-02-23T09:39:13;2.23;;;1.00;;
45011;SDS011;63444;48.148;11.542;2024-02-23T09:41:38;1.60;;;1.10;;
45011;SDS011;63444;48.148;11.542;2024-02-23T09:44:04;1.67;;;1.03;;
45011;SDS011;63444;48.148;11.542;2024-02-23T09:46:32;1.80;;;1.10;;
45011;SDS011;63444;48.148;11.542;2024-02-23T09:48:58;3.93;;;1.10;;
45011;SDS011;63444;48.148;11.542;2024-02-23T09:51:24;1.30;;;0.90;;
45011;SDS011;63444;48.148;11.542;2024-02-23T09:53:50;1.07;;;0.80;;
45011;SDS011;63444;48.148;11.542;2024-02-23T09:56:17;2.77;;;0.90;;
45011;SDS011;63444;48.148;11.542;2024-02-23T09:58:44;2.20;;;1.00;;
45011;SDS011;63444;48.148;11.542;2024-02-23T10:01:13;0.90;;;0.90;;
45011;SDS011;63444;48.148;11.542;2024-02-23T10:03:46;2.17;;;1.47;;
45011;SDS011;63444;48.148;11.542;2024-02-23T10:06:12;2.57;;;0.90;;
45011;SDS011;63444;48.148;11.542;2024-02-23T10:08:38;2.33;;;0.93;;
45011;SDS011;63444;48.148;11.542;2024-02-23T10:11:03;2.33;;;1.00;;
45011;SDS011;63444;48.148;11.542;2024-02-23T10:13:30;0.80;;;0.80;;
45011;SDS011;63444;48.148;11.542;2024-02-23T10:15:55;1.03;;;0.90;;
45011;SDS011;63444;48.148;11.542;2024-02-23T10:18:21;0.90;;;0.90;;
45011;SDS011;63444;48.148;11.542;2024-02-23T10:20:48;1.93;;;1.00;;
45011;SDS011;63444;48.148;11.542;2024-02-23T10:23:15;1.63;;;0.90;;
45011;SDS011;63444;48.148;11.542;2024-02-23T10:25:41;1.77;;;1.00;;
45011;SDS011;63444;48.148;11.542;2024-02-23T10:28:07;0.90;;;0.90;;
45011;SDS011;63444;48.148;11.542;2024-02-23T10:30:32;1.13;;;0.83;;
45011;SDS011;63444;48.148;11.542;2024-02-23T10:32:58;1.67;;;1.00;;
45011;SDS011;63444;48.148;11.542;2024-02-23T10:35:25;0.93;;;0.90;;
45011;SDS011;63444;48.148;11.542;2024-02-23T10:37:53;2.40;;;1.10;;
45011;SDS011;63444;48.148;11.542;2024-02-23T10:40:20;1.10;;;1.03;;
45011;SDS011;63444;48.148;11.542;2024-02-23T10:42:47;1.73;;;0.90;;
45011;SDS011;63444;48.148;11.542;2024-02-23T10:45:16;1.23;;;0.73;;
45011;SDS011;63444;48.148;11.542;2024-02-23T10:47:43;2.47;;;1.03;;
45011;SDS011;63444;48.148;11.542;2024-02-23T10:50:09;1.93;;;1.00;;
45011;SDS011;63444;48.148;11.542;2024-02-23T10:52:39;2.30;;;0.80;;
45011;SDS011;63444;48.148;11.542;2024-02-23T10:55:07;1.03;;;0.90;;
45011;SDS011;63444;48.148;11.542;2024-02-23T10:57:37;0.90;;;0.90;;
45011;SDS011;63444;48.148;11.542;2024-02-23T11:00:04;1.43;;;1.03;;
45011;SDS011;63444;48.148;11.542;2024-02-23T11:02:34;1.83;;;1.10;;
45011;SDS011;63444;48.148;11.542;2024-02-23T11:05:04;1.57;;;1.00;;
45011;SDS011;63444;48.148;11.542;2024-02-23T11:07:31;1.27;;;0.90;;
45011;SDS011;63444;48.148;11.542;2024-02-23T11:10:00;0.93;;;0.87;;
45011;SDS011;63444;48.148;11.542;2024-02-23T11:12:28;1.70;;;0.80;;
45011;SDS011;63444;48.148;11.542;2024-02-23T11:14:58;0.90;;;0.80;;
45011;SDS011;63444;48.148;11.542;2024-02-23T11:17:31;0.90;;;0.90;;
45011;SDS011;63444;48.148;11.542;2024-02-23T11:19:58;1.17;;;1.00;;
45011;SDS011;63444;48.148;11.542;2024-02-23T11:22:27;1.00;;;0.83;;
45011;SDS011;63444;48.148;11.542;2024-02-23T11:25:00;0.83;;;0.80;;
45011;SDS011;63444;48.148;11.542;2024-02-23T11:27:30;0.90;;;0.90;;
45011;SDS011;63444;48.148;11.542;2024-02-23T11:30:02;0.80;;;0.80;;
45011;SDS011;63444;48.148;11.542;2024-02-23T11:32:36;1.07;;;1.00;;
45011;SDS011;63444;48.148;11.542;2024-02-23T11:35:10;1.10;;;1.00;;
45011;SDS011;63444;48.148;11.542;2024-02-23T11:37:46;0.70;;;0.70;;
45011;SDS011;63444;48.148;11.542;2024-02-23T11:40:29;1.97;;;0.90;;
45011;SDS011;63444;48.148;11.542;2024-02-23T11:42:55;3.07;;;1.07;;
45011;SDS011;63444;48.148;11.542;2024-02-23T11:45:21;1.07;;;0.90;;
45011;SDS011;63444;48.148;11.542;2024-02-23T11:47:52;2.17;;;1.00;;
45011;SDS011;63444;48.148;11.542;2024-02-23T11:50:18;1.50;;;0.83;;
45011;SDS011;63444;48.148;11.542;2024-02-23T11:52:46;0.90;;;0.90;;
45011;SDS011;63444;48.148;11.542;2024-02-23T11:55:12;1.07;;;1.00;;
45011;SDS011;63444;48.148;11.542;2024-02-23T11:57:44;1.13;;;1.07;;
45011;SDS011;63444;48.148;11.542;2024-02-23T12:00:10;1.10;;;1.00;;
45011;SDS011;63444;48.148;11.542;2024-02-23T12:02:36;1.93;;;1.00;;
45011;SDS011;63444;48.148;11.542;2024-02-23T12:05:02;0.90;;;0.90;;
45011;SDS011;63444;48.148;11.542;2024-02-23T12:07:31;0.80;;;0.70;;
45011;SDS011;63444;48.148;11.542;2024-02-23T12:09:57;1.60;;;0.80;;
45011;SDS011;63444;48.148;11.542;2024-02-23T12:12:24;1.43;;;0.90;;
45011;SDS011;63444;48.148;11.542;2024-02-23T12:14:51;1.20;;;0.93;;
45011;SDS011;63444;48.148;11.542;2024-02-23T12:17:16;0.80;;;0.80;;
45011;SDS011;63444;48.148;11.542;2024-02-23T12:19:43;1.90;;;0.87;;
45011;SDS011;63444;48.148;11.542;2024-02-23T12:22:09;2.07;;;0.80;;
45011;SDS011;63444;48.148;11.542;2024-02-23T12:24:36;0.97;;;0.90;;
45011;SDS011;63444;48.148;11.542;2024-02-23T12:27:01;1.33;;;1.00;;
45011;SDS011;63444;48.148;11.542;2024-02-23T12:29:27;0.70;;;0.70;;
45011;SDS011;63444;48.148;11.542;2024-02-23T12:32:06;0.80;;;0.80;;
45011;SDS011;63444;48.148;11.542;2024-02-23T12:34:32;1.27;;;0.80;;
45011;SDS011;63444;48.148;11.542;2024-02-23T12:36:58;0.97;;;0.83;;
45011;SDS011;63444;48.148;11.542;2024-02-23T12:39:23;0.80;;;0.80;;
45011;SDS011;63444;48.148;11.542;2024-02-23T12:41:49;1.53;;;1.10;;
45011;SDS011;63444;48.148;11.542;2024-02-23T12:44:15;1.17;;;1.00;;
45011;SDS011;63444;48.148;11.542;2024-02-23T12:46:41;1.83;;;0.90;;
45011;SDS011;63444;48.148;11.542;2024-02-23T12:49:07;0.90;;;0.90;;
45011;SDS011;63444;48.148;11.542;2024-02-23T12:51:33;0.87;;;0.83;;
45011;SDS011;63444;48.148;11.542;2024-02-23T12:53:59;1.07;;;0.80;;
45011;SDS011;63444;48.148;11.542;2024-02-23T12:56:25;0.73;;;0.73;;
45011;SDS011;63444;48.148;11.542;2024-02-23T12:58:51;1.20;;;0.70;;
45011;SDS011;63444;48.148;11.542;2024-02-23T13:01:18;0.70;;;0.70;;
45011;SDS011;63444;48.148;11.542;2024-02-23T13:03:44;1.20;;;0.97;;
45011;SDS011;63444;48.148;11.542;2024-02-23T13:06:09;1.20;;;1.10;;
45011;SDS011;63444;48.148;11.542;2024-02-23T13:08:35;2.03;;;0.90;;
45011;SDS011;63444;48.148;11.542;2024-02-23T13:11:01;1.07;;;0.90;;
45011;SDS011;63444;48.148;11.542;2024-02-23T13:13:28;1.70;;;0.97;;
45011;SDS011;63444;48.148;11.542;2024-02-23T13:15:54;1.33;;;0.97;;
45011;SDS011;63444;48.148;11.542;2024-02-23T13:18:19;1.47;;;1.00;;
45011;SDS011;63444;48.148;11.542;2024-02-23T13:20:45;2.17;;;1.00;;
45011;SDS011;63444;48.148;11.542;2024-02-23T13:23:11;1.00;;;0.90;;
45011;SDS011;63444;48.148;11.542;2024-02-23T13:25:40;0.90;;;0.90;;
45011;SDS011;63444;48.148;11.542;2024-02-23T13:28:06;1.20;;;1.10;;
45011;SDS011;63444;48.148;11.542;2024-02-23T13:30:32;1.73;;;1.00;;
45011;SDS011;63444;48.148;11.542;2024-02-23T13:32:59;0.80;;;0.80;;
45011;SDS011;63444;48.148;11.542;2024-02-23T13:35:25;1.70;;;0.90;;
45011;SDS011;63444;48.148;11.542;2024-02-23T13:37:51;3.10;;;1.00;;
45011;SDS011;63444;48.148;11.542;2024-02-23T13:40:17;1.90;;;1.00;;
45011;SDS011;63444;48.148;11.542;2024-02-23T13:42:43;1.37;;;1.03;;
45011;SDS011;63444;48.148;11.542;2024-02-23T13:45:11;1.63;;;0.90;;
45011;SDS011;63444;48.148;11.542;2024-02-23T13:47:39;1.03;;;0.90;;
45011;SDS011;63444;48.148;11.542;2024-02-23T13:50:05;1.80;;;0.90;;
45011;SDS011;63444;48.148;11.542;2024-02-23T13:52:31;0.77;;;0.77;;
45011;SDS011;63444;48.148;11.542;2024-02-23T13:54:57;1.20;;;1.10;;
45011;SDS011;63444;48.148;11.542;2024-02-23T13:57:22;0.97;;;0.70;;
45011;SDS011;63444;48.148;11.542;2024-02-23T13:59:48;1.00;;;0.90;;
45011;SDS011;63444;48.148;11.542;2024-02-23T14:02:14;0.80;;;0.80;;
45011;SDS011;63444;48.148;11.542;2024-02-23T14:04:40;1.63;;;1.00;;
45011;SDS011;63444;48.148;11.542;2024-02-23T14:07:06;0.97;;;0.90;;
45011;SDS011;63444;48.148;11.542;2024-02-23T14:09:32;0.83;;;0.80;;
45011;SDS011;63444;48.148;11.542;2024-02-23T14:11:58;1.77;;;0.90;;
45011;SDS011;63444;48.148;11.542;2024-02-23T14:14:24;0.87;;;0.80;;
45011;SDS011;63444;48.148;11.542;2024-02-23T14:16:49;0.93;;;0.80;;
45011;SDS011;63444;48.148;11.542;2024-02-23T14:19:15;0.83;;;0.80;;
45011;SDS011;63444;48.148;11.542;2024-02-23T14:21:41;1.13;;;1.03;;
45011;SDS011;63444;48.148;11.542;2024-02-23T14:24:06;0.90;;;0.90;;
45011;SDS011;63444;48.148;11.542;2024-02-23T14:26:32;1.03;;;1.03;;
45011;SDS011;63444;48.148;11.542;2024-02-23T14:28:58;0.60;;;0.60;;